sensor_id;sensor_type;location;lat;lon;timestamp;P1;durP1;ratioP1;P2;durP2;ratioP2
27802;SDS011;15182;48.174;11.562;2023-04-19T00:01:08;7.33;;;6.73;;
27802;SDS011;15182;48.174;11.562;2023-04-19T00:03:39;8.17;;;7.40;;
27802;SDS011;15182;48.174;11.562;2023-04-19T00:06:11;7.73;;;7.03;;
27802;SDS011;15182;48.174;11.562;2023-04-19T00:08:43;7.20;;;6.67;;
27802;SDS011;15182;48.174;11.562;2023-04-19T00:11:15;8.03;;;7.37;;
27802;SDS011;15182;48.174;11.562;2023-04-19T00:13:48;7.53;;;6.93;;
27802;SDS011;15182;48.174;11.562;2023-04-19T00:16:19;7.60;;;7.10;;
27802;SDS011;15182;48.174;11.562;2023-04-19T00:18:51;8.07;;;6.43;;
27802;SDS011;15182;48.174;11.562;2023-04-19T00:21:22;7.37;;;6.83;;
27802;SDS011;15182;48.174;11.562;2023-04-19T00:23:53;8.10;;;7.30;;
27802;SDS011;15182;48.174;11.562;2023-04-19T00:26:26;7.17;;;6.70;;
27802;SDS011;15182;48.174;11.562;2023-04-19T00:28:57;6.60;;;6.10;;
27802;SDS011;15182;48.174;11.562;2023-04-19T00:31:28;7.03;;;6.63;;
27802;SDS011;15182;48.174;11.562;2023-04-19T00:33:59;7.17;;;6.77;;
27802;SDS011;15182;48.174;11.562;2023-04-19T00:36:31;7.50;;;7.00;;
27802;SDS011;15182;48.174;11.562;2023-04-19T00:39:02;7.23;;;6.73;;
27802;SDS011;15182;48.174;11.562;2023-04-19T00:41:35;6.83;;;6.43;;
27802;SDS011;15182;48.174;11.562;2023-04-19T00:44:06;8.30;;;7.63;;
27802;SDS011;15182;48.174;11.562;2023-04-19T00:46:37;8.00;;;7.33;;
27802;SDS011;15182;48.174;11.562;2023-04-19T00:49:10;8.63;;;7.93;;
27802;SDS011;15182;48.174;11.562;2023-04-19T00:51:41;7.70;;;7.10;;
27802;SDS011;15182;48.174;11.562;2023-04-19T00:54:14;8.37;;;7.57;;
27802;SDS011;15182;48.174;11.562;2023-04-19T00:56:49;8.33;;;7.63;;
27802;SDS011;15182;48.174;11.562;2023-04-19T00:59:23;8.30;;;7.50;;
27802;SDS011;15182;48.174;11.562;2023-04-19T01:01:55;7.97;;;7.37;;
27802;SDS011;15182;48.174;11.562;2023-04-19T01:04:28;7.97;;;7.37;;
27802;SDS011;15182;48.174;11.562;2023-04-19T01:07:00;8.70;;;7.90;;
27802;SDS011;15182;48.174;11.562;2023-04-19T01:09:31;7.17;;;6.73;;
27802;SDS011;15182;48.174;11.562;2023-04-19T01:12:04;8.60;;;7.80;;
27802;SDS011;15182;48.174;11.562;2023-04-19T01:14:36;8.63;;;7.93;;
27802;SDS011;15182;48.174;11.562;2023-04-19T01:17:08;8.90;;;8.20;;
27802;SDS011;15182;48.174;11.562;2023-04-19T01:19:40;8.80;;;8.10;;
27802;SDS011;15182;48.174;11.562;2023-04-19T01:22:15;8.93;;;8.13;;
27802;SDS011;15182;48.174;11.562;2023-04-19T01:24:47;8.83;;;7.87;;
27802;SDS011;15182;48.174;11.562;2023-04-19T01:27:18;9.77;;;8.83;;
27802;SDS011;15182;48.174;11.562;2023-04-19T01:29:50;8.50;;;7.90;;
27802;SDS011;15182;48.174;11.562;2023-04-19T01:32:25;8.40;;;7.70;;
27802;SDS011;15182;48.174;11.562;2023-04-19T01:34:57;8.50;;;7.80;;
27802;SDS011;15182;48.174;11.562;2023-04-19T01:37:31;8.93;;;8.13;;
27802;SDS011;15182;48.174;11.562;2023-04-19T01:40:05;9.83;;;8.83;;
27802;SDS011;15182;48.174;11.562;2023-04-19T01:42:38;9.20;;;8.40;;
27802;SDS011;15182;48.174;11.562;2023-04-19T01:45:09;14.23;;;8.90;;
27802;SDS011;15182;48.174;11.562;2023-04-19T01:47:41;9.73;;;8.80;;
27802;SDS011;15182;48.174;11.562;2023-04-19T01:50:12;9.40;;;8.50;;
27802;SDS011;15182;48.174;11.562;2023-04-19T01:52:45;9.50;;;8.60;;
27802;SDS011;15182;48.174;11.562;2023-04-19T01:55:21;10.03;;;9.03;;
27802;SDS011;15182;48.174;11.562;2023-04-19T01:57:52;10.13;;;9.13;;
27802;SDS011;15182;48.174;11.562;2023-04-19T02:00:24;11.07;;;9.07;;
27802;SDS011;15182;48.174;11.562;2023-04-19T02:02:55;10.70;;;9.60;;
27802;SDS011;15182;48.174;11.562;2023-04-19T02:05:26;10.77;;;9.37;;
27802;SDS011;15182;48.174;11.562;2023-04-19T02:08:02;10.17;;;9.17;;
27802;SDS011;15182;48.174;11.562;2023-04-19T02:10:33;9.97;;;8.97;;
27802;SDS011;15182;48.174;11.562;2023-04-19T02:13:05;10.23;;;9.27;;
27802;SDS011;15182;48.174;11.562;2023-04-19T02:15:36;9.80;;;8.90;;
27802;SDS011;15182;48.174;11.562;2023-04-19T02:18:07;10.33;;;9.23;;
27802;SDS011;15182;48.174;11.562;2023-04-19T02:20:39;14.20;;;9.80;;
27802;SDS011;15182;48.174;11.562;2023-04-19T02:23:13;11.37;;;9.53;;
27802;SDS011;15182;48.174;11.562;2023-04-19T02:25:46;10.60;;;9.50;;
27802;SDS011;15182;48.174;11.562;2023-04-19T02:28:18;10.33;;;9.33;;
27802;SDS011;15182;48.174;11.562;2023-04-19T02:30:49;10.37;;;9.37;;
27802;SDS011;15182;48.174;11.562;2023-04-19T02:33:20;10.80;;;9.70;;
27802;SDS011;15182;48.174;11.562;2023-04-19T02:35:53;11.33;;;9.67;;
27802;SDS011;15182;48.174;11.562;2023-04-19T02:38:27;10.50;;;9.40;;
27802;SDS011;15182;48.174;11.562;2023-04-19T02:40:58;9.73;;;8.73;;
27802;SDS011;15182;48.174;11.562;2023-04-19T02:43:30;11.57;;;10.37;;
27802;SDS011;15182;48.174;11.562;2023-04-19T02:46:02;11.63;;;9.13;;
27802;SDS011;15182;48.174;11.562;2023-04-19T02:48:33;13.43;;;9.57;;
27802;SDS011;15182;48.174;11.562;2023-04-19T02:51:04;14.37;;;10.10;;
27802;SDS011;15182;48.174;11.562;2023-04-19T02:53:39;11.03;;;9.73;;
27802;SDS011;15182;48.174;11.562;2023-04-19T02:56:10;14.97;;;10.00;;
27802;SDS011;15182;48.174;11.562;2023-04-19T02:58:41;14.07;;;10.40;;
27802;SDS011;15182;48.174;11.562;2023-04-19T03:01:13;12.67;;;11.00;;
27802;SDS011;15182;48.174;11.562;2023-04-19T03:03:44;17.27;;;11.93;;
27802;SDS011;15182;48.174;11.562;2023-04-19T03:06:15;14.13;;;10.73;;
27802;SDS011;15182;48.174;11.562;2023-04-19T03:08:48;16.20;;;11.80;;
27802;SDS011;15182;48.174;11.562;2023-04-19T03:11:20;13.30;;;11.03;;
27802;SDS011;15182;48.174;11.562;2023-04-19T03:13:52;14.47;;;11.30;;
27802;SDS011;15182;48.174;11.562;2023-04-19T03:16:24;17.43;;;11.53;;
27802;SDS011;15182;48.174;11.562;2023-04-19T03:18:56;17.23;;;12.10;;
27802;SDS011;15182;48.174;11.562;2023-04-19T03:21:33;18.27;;;11.70;;
27802;SDS011;15182;48.174;11.562;2023-04-19T03:24:06;15.97;;;11.60;;
27802;SDS011;15182;48.174;11.562;2023-04-19T03:26:42;16.67;;;12.07;;
27802;SDS011;15182;48.174;11.562;2023-04-19T03:29:17;13.87;;;11.77;;
27802;SDS011;15182;48.174;11.562;2023-04-19T03:31:58;13.00;;;10.87;;
27802;SDS011;15182;48.174;11.562;2023-04-19T03:34:29;13.17;;;11.77;;
27802;SDS011;15182;48.174;11.562;2023-04-19T03:37:00;17.23;;;11.67;;
27802;SDS011;15182;48.174;11.562;2023-04-19T03:39:33;15.67;;;11.07;;
27802;SDS011;15182;48.174;11.562;2023-04-19T03:42:08;18.77;;;11.80;;
27802;SDS011;15182;48.174;11.562;2023-04-19T03:44:45;19.20;;;11.53;;
27802;SDS011;15182;48.174;11.562;2023-04-19T03:47:18;15.70;;;10.60;;
27802;SDS011;15182;48.174;11.562;2023-04-19T03:49:51;14.20;;;12.07;;
27802;SDS011;15182;48.174;11.562;2023-04-19T03:52:22;13.87;;;10.93;;
27802;SDS011;15182;48.174;11.562;2023-04-19T03:54:55;12.13;;;10.83;;
27802;SDS011;15182;48.174;11.562;2023-04-19T03:57:36;14.33;;;11.60;;
27802;SDS011;15182;48.174;11.562;2023-04-19T04:00:17;13.57;;;10.73;;
27802;SDS011;15182;48.174;11.562;2023-04-19T04:02:55;13.00;;;11.20;;
27802;SDS011;15182;48.174;11.562;2023-04-19T04:05:26;14.03;;;11.53;;
27802;SDS011;15182;48.174;11.562;2023-04-19T04:08:00;18.00;;;12.40;;
27802;SDS011;15182;48.174;11.562;2023-04-19T04:10:33;13.30;;;10.97;;
27802;SDS011;15182;48.174;11.562;2023-04-19T04:13:05;13.93;;;11.40;;
27802;SDS011;15182;48.174;11.562;2023-04-19T04:15:44;16.07;;;11.07;;
27802;SDS011;15182;48.174;11.562;2023-04-19T04:18:16;15.00;;;11.83;;
27802;SDS011;15182;48.174;11.562;2023-04-19T04:20:48;15.60;;;11.83;;
27802;SDS011;15182;48.174;11.562;2023-04-19T04:23:19;14.43;;;11.23;;
27802;SDS011;15182;48.174;11.562;2023-04-19T04:25:56;16.07;;;12.00;;
27802;SDS011;15182;48.174;11.562;2023-04-19T04:28:48;12.37;;;10.97;;
27802;SDS011;15182;48.174;11.562;2023-04-19T04:31:19;15.27;;;11.70;;
27802;SDS011;15182;48.174;11.562;2023-04-19T04:33:50;14.57;;;11.60;;
27802;SDS011;15182;48.174;11.562;2023-04-19T04:36:22;17.70;;;11.53;;
27802;SDS011;15182;48.174;11.562;2023-04-19T04:38:54;15.40;;;12.27;;
27802;SDS011;15182;48.174;11.562;2023-04-19T04:41:29;14.70;;;11.37;;
27802;SDS011;15182;48.174;11.562;2023-04-19T04:44:00;14.00;;;11.10;;
27802;SDS011;15182;48.174;11.562;2023-04-19T04:46:34;14.90;;;11.37;;
27802;SDS011;15182;48.174;11.562;2023-04-19T04:49:06;15.33;;;11.70;;
27802;SDS011;15182;48.174;11.562;2023-04-19T04:51:40;14.20;;;11.47;;
27802;SDS011;15182;48.174;11.562;2023-04-19T04:54:12;16.10;;;11.80;;
27802;SDS011;15182;48.174;11.562;2023-04-19T04:56:46;17.57;;;12.27;;
27802;SDS011;15182;48.174;11.562;2023-04-19T04:59:18;16.67;;;11.90;;
27802;SDS011;15182;48.174;11.562;2023-04-19T05:01:49;16.43;;;11.47;;
27802;SDS011;15182;48.174;11.562;2023-04-19T05:04:21;16.73;;;11.80;;
27802;SDS011;15182;48.174;11.562;2023-04-19T05:06:52;17.93;;;11.90;;
27802;SDS011;15182;48.174;11.562;2023-04-19T05:09:26;13.53;;;11.23;;
27802;SDS011;15182;48.174;11.562;2023-04-19T05:11:58;15.63;;;11.33;;
27802;SDS011;15182;48.174;11.562;2023-04-19T05:14:30;15.90;;;11.63;;
27802;SDS011;15182;48.174;11.562;2023-04-19T05:17:02;14.00;;;11.50;;
27802;SDS011;15182;48.174;11.562;2023-04-19T05:19:34;15.33;;;11.00;;
27802;SDS011;15182;48.174;11.562;2023-04-19T05:22:06;16.87;;;12.33;;
27802;SDS011;15182;48.174;11.562;2023-04-19T05:24:39;17.17;;;11.60;;
27802;SDS011;15182;48.174;11.562;2023-04-19T05:27:12;17.93;;;11.20;;
27802;SDS011;15182;48.174;11.562;2023-04-19T05:29:43;18.97;;;12.73;;
27802;SDS011;15182;48.174;11.562;2023-04-19T05:32:16;17.87;;;12.83;;
27802;SDS011;15182;48.174;11.562;2023-04-19T05:34:52;15.73;;;12.27;;
27802;SDS011;15182;48.174;11.562;2023-04-19T05:37:24;17.77;;;11.53;;
27802;SDS011;15182;48.174;11.562;2023-04-19T05:39:56;15.70;;;11.63;;
27802;SDS011;15182;48.174;11.562;2023-04-19T05:42:31;18.07;;;12.20;;
27802;SDS011;15182;48.174;11.562;2023-04-19T05:45:03;16.43;;;11.70;;
27802;SDS011;15182;48.174;11.562;2023-04-19T05:47:36;15.47;;;12.23;;
27802;SDS011;15182;48.174;11.562;2023-04-19T05:50:24;18.57;;;11.90;;
27802;SDS011;15182;48.174;11.562;2023-04-19T05:53:14;18.23;;;12.30;;
27802;SDS011;15182;48.174;11.562;2023-04-19T05:55:46;17.00;;;12.93;;
27802;SDS011;15182;48.174;11.562;2023-04-19T05:58:19;17.03;;;12.00;;
27802;SDS011;15182;48.174;11.562;2023-04-19T06:00:51;17.77;;;11.80;;
27802;SDS011;15182;48.174;11.562;2023-04-19T06:03:23;15.23;;;11.13;;
27802;SDS011;15182;48.174;11.562;2023-04-19T06:05:54;16.03;;;11.03;;
27802;SDS011;15182;48.174;11.562;2023-04-19T06:08:25;17.60;;;11.60;;
27802;SDS011;15182;48.174;11.562;2023-04-19T06:10:56;16.37;;;11.77;;
27802;SDS011;15182;48.174;11.562;2023-04-19T06:13:37;17.77;;;12.13;;
27802;SDS011;15182;48.174;11.562;2023-04-19T06:16:09;14.13;;;11.83;;
27802;SDS011;15182;48.174;11.562;2023-04-19T06:18:45;15.33;;;11.77;;
27802;SDS011;15182;48.174;11.562;2023-04-19T06:21:16;15.37;;;11.07;;
27802;SDS011;15182;48.174;11.562;2023-04-19T06:23:48;19.93;;;12.27;;
27802;SDS011;15182;48.174;11.562;2023-04-19T06:26:19;18.30;;;11.97;;
27802;SDS011;15182;48.174;11.562;2023-04-19T06:28:52;18.27;;;12.13;;
27802;SDS011;15182;48.174;11.562;2023-04-19T06:31:23;16.80;;;11.40;;
27802;SDS011;15182;48.174;11.562;2023-04-19T06:33:54;19.10;;;12.03;;
27802;SDS011;15182;48.174;11.562;2023-04-19T06:36:25;15.10;;;11.23;;
27802;SDS011;15182;48.174;11.562;2023-04-19T06:38:57;17.23;;;12.47;;
27802;SDS011;15182;48.174;11.562;2023-04-19T06:41:29;18.30;;;12.70;;
27802;SDS011;15182;48.174;11.562;2023-04-19T06:44:02;15.93;;;11.17;;
27802;SDS011;15182;48.174;11.562;2023-04-19T06:46:35;17.33;;;11.97;;
27802;SDS011;15182;48.174;11.562;2023-04-19T06:49:15;20.07;;;12.33;;
27802;SDS011;15182;48.174;11.562;2023-04-19T06:51:47;13.70;;;10.63;;
27802;SDS011;15182;48.174;11.562;2023-04-19T06:54:19;19.93;;;11.80;;
27802;SDS011;15182;48.174;11.562;2023-04-19T06:56:50;16.70;;;11.60;;
27802;SDS011;15182;48.174;11.562;2023-04-19T06:59:23;17.33;;;11.87;;
27802;SDS011;15182;48.174;11.562;2023-04-19T07:01:57;20.40;;;13.27;;
27802;SDS011;15182;48.174;11.562;2023-04-19T07:04:28;22.73;;;13.30;;
27802;SDS011;15182;48.174;11.562;2023-04-19T07:06:59;17.17;;;12.53;;
27802;SDS011;15182;48.174;11.562;2023-04-19T07:09:31;17.13;;;12.57;;
27802;SDS011;15182;48.174;11.562;2023-04-19T07:12:03;18.83;;;12.77;;
27802;SDS011;15182;48.174;11.562;2023-04-19T07:14:35;15.43;;;12.00;;
27802;SDS011;15182;48.174;11.562;2023-04-19T07:17:06;17.17;;;12.40;;
27802;SDS011;15182;48.174;11.562;2023-04-19T07:19:38;15.00;;;11.63;;
27802;SDS011;15182;48.174;11.562;2023-04-19T07:22:09;19.10;;;12.07;;
27802;SDS011;15182;48.174;11.562;2023-04-19T07:24:41;17.27;;;11.23;;
27802;SDS011;15182;48.174;11.562;2023-04-19T07:27:13;18.37;;;12.17;;
27802;SDS011;15182;48.174;11.562;2023-04-19T07:29:45;19.87;;;12.37;;
27802;SDS011;15182;48.174;11.562;2023-04-19T07:32:17;18.37;;;12.27;;
27802;SDS011;15182;48.174;11.562;2023-04-19T07:34:48;18.97;;;12.60;;
27802;SDS011;15182;48.174;11.562;2023-04-19T07:37:20;24.47;;;12.60;;
27802;SDS011;15182;48.174;11.562;2023-04-19T07:39:55;21.33;;;13.07;;
27802;SDS011;15182;48.174;11.562;2023-04-19T07:42:28;19.93;;;12.63;;
27802;SDS011;15182;48.174;11.562;2023-04-19T07:45:00;18.77;;;12.40;;
27802;SDS011;15182;48.174;11.562;2023-04-19T07:47:33;15.83;;;12.37;;
27802;SDS011;15182;48.174;11.562;2023-04-19T07:50:05;19.50;;;12.33;;
27802;SDS011;15182;48.174;11.562;2023-04-19T07:52:37;20.60;;;12.90;;
27802;SDS011;15182;48.174;11.562;2023-04-19T07:55:09;20.77;;;11.70;;
27802;SDS011;15182;48.174;11.562;2023-04-19T07:57:40;17.23;;;11.57;;
27802;SDS011;15182;48.174;11.562;2023-04-19T08:00:15;17.17;;;11.83;;
27802;SDS011;15182;48.174;11.562;2023-04-19T08:02:47;17.33;;;12.33;;
27802;SDS011;15182;48.174;11.562;2023-04-19T08:05:19;19.93;;;13.23;;
27802;SDS011;15182;48.174;11.562;2023-04-19T08:07:54;18.63;;;12.37;;
27802;SDS011;15182;48.174;11.562;2023-04-19T08:10:25;16.20;;;11.83;;
27802;SDS011;15182;48.174;11.562;2023-04-19T08:12:57;15.63;;;12.27;;
27802;SDS011;15182;48.174;11.562;2023-04-19T08:15:30;19.53;;;12.73;;
27802;SDS011;15182;48.174;11.562;2023-04-19T08:18:02;19.00;;;13.07;;
27802;SDS011;15182;48.174;11.562;2023-04-19T08:20:34;18.37;;;12.83;;
27802;SDS011;15182;48.174;11.562;2023-04-19T08:23:07;16.77;;;12.60;;
27802;SDS011;15182;48.174;11.562;2023-04-19T08:25:38;16.83;;;11.67;;
27802;SDS011;15182;48.174;11.562;2023-04-19T08:28:09;18.10;;;11.80;;
27802;SDS011;15182;48.174;11.562;2023-04-19T08:30:42;19.77;;;12.57;;
27802;SDS011;15182;48.174;11.562;2023-04-19T08:33:13;16.47;;;11.63;;
27802;SDS011;15182;48.174;11.562;2023-04-19T08:35:45;15.50;;;11.50;;
27802;SDS011;15182;48.174;11.562;2023-04-19T08:38:16;18.87;;;12.50;;
27802;SDS011;15182;48.174;11.562;2023-04-19T08:40:49;19.10;;;12.40;;
27802;SDS011;15182;48.174;11.562;2023-04-19T08:43:22;15.37;;;11.87;;
27802;SDS011;15182;48.174;11.562;2023-04-19T08:46:00;21.03;;;12.33;;
27802;SDS011;15182;48.174;11.562;2023-04-19T08:48:32;18.90;;;11.83;;
27802;SDS011;15182;48.174;11.562;2023-04-19T08:51:04;21.67;;;12.00;;
27802;SDS011;15182;48.174;11.562;2023-04-19T08:53:38;19.63;;;12.17;;
27802;SDS011;15182;48.174;11.562;2023-04-19T08:56:10;17.50;;;12.30;;
27802;SDS011;15182;48.174;11.562;2023-04-19T08:58:41;16.83;;;11.17;;
27802;SDS011;15182;48.174;11.562;2023-04-19T09:01:14;17.80;;;12.43;;
27802;SDS011;15182;48.174;11.562;2023-04-19T09:03:46;18.73;;;12.63;;
27802;SDS011;15182;48.174;11.562;2023-04-19T09:06:17;17.03;;;11.93;;
27802;SDS011;15182;48.174;11.562;2023-04-19T09:08:49;18.10;;;11.97;;
27802;SDS011;15182;48.174;11.562;2023-04-19T09:11:28;19.17;;;12.07;;
27802;SDS011;15182;48.174;11.562;2023-04-19T09:14:09;18.43;;;11.97;;
27802;SDS011;15182;48.174;11.562;2023-04-19T09:16:43;17.27;;;11.60;;
27802;SDS011;15182;48.174;11.562;2023-04-19T09:19:17;14.97;;;11.10;;
27802;SDS011;15182;48.174;11.562;2023-04-19T09:21:48;15.67;;;11.93;;
27802;SDS011;15182;48.174;11.562;2023-04-19T09:27:07;18.83;;;11.87;;
27802;SDS011;15182;48.174;11.562;2023-04-19T09:29:39;16.00;;;11.97;;
27802;SDS011;15182;48.174;11.562;2023-04-19T09:32:22;16.17;;;11.10;;
27802;SDS011;15182;48.174;11.562;2023-04-19T09:34:55;18.43;;;11.00;;
27802;SDS011;15182;48.174;11.562;2023-04-19T09:37:27;15.03;;;10.83;;
27802;SDS011;15182;48.174;11.562;2023-04-19T09:40:00;19.07;;;11.23;;
27802;SDS011;15182;48.174;11.562;2023-04-19T09:42:52;14.17;;;9.97;;
27802;SDS011;15182;48.174;11.562;2023-04-19T09:45:25;14.37;;;11.57;;
27802;SDS011;15182;48.174;11.562;2023-04-19T09:48:09;14.27;;;10.83;;
27802;SDS011;15182;48.174;11.562;2023-04-19T09:50:51;15.03;;;11.67;;
27802;SDS011;15182;48.174;11.562;2023-04-19T09:53:24;14.67;;;10.30;;
27802;SDS011;15182;48.174;11.562;2023-04-19T09:55:58;17.47;;;11.73;;
27802;SDS011;15182;48.174;11.562;2023-04-19T09:58:31;23.07;;;11.43;;
27802;SDS011;15182;48.174;11.562;2023-04-19T10:01:02;15.17;;;11.10;;
27802;SDS011;15182;48.174;11.562;2023-04-19T10:03:39;15.87;;;11.17;;
27802;SDS011;15182;48.174;11.562;2023-04-19T10:06:13;18.23;;;11.80;;
27802;SDS011;15182;48.174;11.562;2023-04-19T10:08:44;13.63;;;10.67;;
27802;SDS011;15182;48.174;11.562;2023-04-19T10:11:17;14.53;;;11.07;;
27802;SDS011;15182;48.174;11.562;2023-04-19T10:13:51;13.80;;;11.63;;
27802;SDS011;15182;48.174;11.562;2023-04-19T10:16:26;14.53;;;11.20;;
27802;SDS011;15182;48.174;11.562;2023-04-19T10:18:59;13.80;;;10.97;;
27802;SDS011;15182;48.174;11.562;2023-04-19T10:21:33;15.50;;;10.67;;
27802;SDS011;15182;48.174;11.562;2023-04-19T10:24:06;16.77;;;11.30;;
27802;SDS011;15182;48.174;11.562;2023-04-19T10:32:28;15.93;;;12.47;;
27802;SDS011;15182;48.174;11.562;2023-04-19T10:35:09;14.57;;;11.80;;
27802;SDS011;15182;48.174;11.562;2023-04-19T10:38:04;15.47;;;10.80;;
27802;SDS011;15182;48.174;11.562;2023-04-19T10:40:56;16.57;;;12.03;;
27802;SDS011;15182;48.174;11.562;2023-04-19T10:43:36;13.50;;;10.53;;
27802;SDS011;15182;48.174;11.562;2023-04-19T10:46:12;15.90;;;11.13;;
27802;SDS011;15182;48.174;11.562;2023-04-19T10:49:02;12.73;;;10.10;;
27802;SDS011;15182;48.174;11.562;2023-04-19T10:51:36;17.20;;;11.20;;
27802;SDS011;15182;48.174;11.562;2023-04-19T10:54:26;15.13;;;11.37;;
27802;SDS011;15182;48.174;11.562;2023-04-19T10:57:00;12.20;;;10.43;;
27802;SDS011;15182;48.174;11.562;2023-04-19T10:59:33;16.50;;;11.37;;
27802;SDS011;15182;48.174;11.562;2023-04-19T11:04:58;14.33;;;10.60;;
27802;SDS011;15182;48.174;11.562;2023-04-19T11:07:38;13.67;;;10.60;;
27802;SDS011;15182;48.174;11.562;2023-04-19T11:10:07;15.67;;;11.20;;
27802;SDS011;15182;48.174;11.562;2023-04-19T11:12:42;13.20;;;10.70;;
27802;SDS011;15182;48.174;11.562;2023-04-19T11:15:14;13.07;;;10.50;;
27802;SDS011;15182;48.174;11.562;2023-04-19T11:17:49;13.73;;;10.07;;
27802;SDS011;15182;48.174;11.562;2023-04-19T11:20:22;15.07;;;11.33;;
27802;SDS011;15182;48.174;11.562;2023-04-19T11:22:54;13.80;;;11.33;;
27802;SDS011;15182;48.174;11.562;2023-04-19T11:25:26;12.87;;;10.60;;
27802;SDS011;15182;48.174;11.562;2023-04-19T11:27:58;13.77;;;11.67;;
27802;SDS011;15182;48.174;11.562;2023-04-19T11:30:30;15.70;;;11.83;;
27802;SDS011;15182;48.174;11.562;2023-04-19T11:33:03;13.67;;;11.30;;
27802;SDS011;15182;48.174;11.562;2023-04-19T11:35:34;19.93;;;12.53;;
27802;SDS011;15182;48.174;11.562;2023-04-19T11:38:07;14.27;;;11.13;;
27802;SDS011;15182;48.174;11.562;2023-04-19T11:40:41;16.27;;;11.67;;
27802;SDS011;15182;48.174;11.562;2023-04-19T11:43:12;13.00;;;10.93;;
27802;SDS011;15182;48.174;11.562;2023-04-19T11:45:43;17.07;;;11.23;;
27802;SDS011;15182;48.174;11.562;2023-04-19T11:48:14;16.77;;;11.03;;
27802;SDS011;15182;48.174;11.562;2023-04-19T11:50:46;18.50;;;11.70;;
27802;SDS011;15182;48.174;11.562;2023-04-19T11:53:19;14.67;;;11.47;;
27802;SDS011;15182;48.174;11.562;2023-04-19T11:55:53;14.10;;;11.50;;
27802;SDS011;15182;48.174;11.562;2023-04-19T11:58:31;18.87;;;11.13;;
27802;SDS011;15182;48.174;11.562;2023-04-19T12:01:09;15.23;;;11.53;;
27802;SDS011;15182;48.174;11.562;2023-04-19T12:03:44;12.77;;;10.87;;
27802;SDS011;15182;48.174;11.562;2023-04-19T12:06:21;16.30;;;12.30;;
27802;SDS011;15182;48.174;11.562;2023-04-19T12:08:55;15.67;;;12.30;;
27802;SDS011;15182;48.174;11.562;2023-04-19T12:11:40;15.53;;;11.67;;
27802;SDS011;15182;48.174;11.562;2023-04-19T12:14:15;15.07;;;11.83;;
27802;SDS011;15182;48.174;11.562;2023-04-19T12:17:04;14.97;;;11.27;;
27802;SDS011;15182;48.174;11.562;2023-04-19T12:19:35;19.07;;;12.27;;
27802;SDS011;15182;48.174;11.562;2023-04-19T12:22:13;18.27;;;12.77;;
27802;SDS011;15182;48.174;11.562;2023-04-19T12:24:49;17.30;;;12.30;;
27802;SDS011;15182;48.174;11.562;2023-04-19T12:27:22;23.63;;;13.63;;
27802;SDS011;15182;48.174;11.562;2023-04-19T12:29:53;20.23;;;14.10;;
27802;SDS011;15182;48.174;11.562;2023-04-19T12:32:25;19.30;;;12.03;;
27802;SDS011;15182;48.174;11.562;2023-04-19T12:34:57;11.20;;;9.40;;
27802;SDS011;15182;48.174;11.562;2023-04-19T12:37:28;9.77;;;8.83;;
27802;SDS011;15182;48.174;11.562;2023-04-19T12:40:01;10.03;;;9.03;;
27802;SDS011;15182;48.174;11.562;2023-04-19T12:42:33;10.03;;;8.53;;
27802;SDS011;15182;48.174;11.562;2023-04-19T12:45:05;8.27;;;7.57;;
27802;SDS011;15182;48.174;11.562;2023-04-19T12:47:37;7.97;;;7.20;;
27802;SDS011;15182;48.174;11.562;2023-04-19T12:50:10;7.60;;;7.00;;
27802;SDS011;15182;48.174;11.562;2023-04-19T12:52:43;8.30;;;7.60;;
27802;SDS011;15182;48.174;11.562;2023-04-19T12:55:19;7.83;;;7.23;;
27802;SDS011;15182;48.174;11.562;2023-04-19T12:57:51;7.23;;;6.73;;
27802;SDS011;15182;48.174;11.562;2023-04-19T13:00:22;7.53;;;6.83;;
27802;SDS011;15182;48.174;11.562;2023-04-19T13:02:54;8.00;;;7.20;;
27802;SDS011;15182;48.174;11.562;2023-04-19T13:05:26;6.97;;;6.47;;
27802;SDS011;15182;48.174;11.562;2023-04-19T13:07:57;8.57;;;7.63;;
27802;SDS011;15182;48.174;11.562;2023-04-19T13:10:30;6.20;;;5.80;;
27802;SDS011;15182;48.174;11.562;2023-04-19T13:13:01;6.87;;;6.37;;
27802;SDS011;15182;48.174;11.562;2023-04-19T13:15:32;7.70;;;7.10;;
27802;SDS011;15182;48.174;11.562;2023-04-19T13:18:04;7.07;;;6.37;;
27802;SDS011;15182;48.174;11.562;2023-04-19T13:20:35;7.00;;;6.47;;
27802;SDS011;15182;48.174;11.562;2023-04-19T13:23:07;6.33;;;5.83;;
27802;SDS011;15182;48.174;11.562;2023-04-19T13:25:39;6.70;;;6.30;;
27802;SDS011;15182;48.174;11.562;2023-04-19T13:28:11;6.83;;;6.33;;
27802;SDS011;15182;48.174;11.562;2023-04-19T13:30:42;6.57;;;6.10;;
27802;SDS011;15182;48.174;11.562;2023-04-19T13:33:13;6.00;;;5.60;;
27802;SDS011;15182;48.174;11.562;2023-04-19T13:35:45;5.57;;;5.30;;
27802;SDS011;15182;48.174;11.562;2023-04-19T13:38:16;5.47;;;5.00;;
27802;SDS011;15182;48.174;11.562;2023-04-19T13:40:49;5.47;;;5.00;;
27802;SDS011;15182;48.174;11.562;2023-04-19T13:43:20;5.27;;;4.77;;
27802;SDS011;15182;48.174;11.562;2023-04-19T13:45:52;4.67;;;4.37;;
27802;SDS011;15182;48.174;11.562;2023-04-19T13:48:23;4.87;;;4.47;;
27802;SDS011;15182;48.174;11.562;2023-04-19T13:50:55;5.13;;;4.83;;
27802;SDS011;15182;48.174;11.562;2023-04-19T13:53:27;5.27;;;4.83;;
27802;SDS011;15182;48.174;11.562;2023-04-19T13:56:00;5.30;;;5.00;;
27802;SDS011;15182;48.174;11.562;2023-04-19T13:58:34;4.57;;;4.37;;
27802;SDS011;15182;48.174;11.562;2023-04-19T14:01:05;5.03;;;4.80;;
27802;SDS011;15182;48.174;11.562;2023-04-19T14:03:36;5.77;;;5.37;;
27802;SDS011;15182;48.174;11.562;2023-04-19T14:06:08;4.57;;;4.47;;
27802;SDS011;15182;48.174;11.562;2023-04-19T14:08:39;4.40;;;4.10;;
27802;SDS011;15182;48.174;11.562;2023-04-19T14:11:12;3.60;;;3.50;;
27802;SDS011;15182;48.174;11.562;2023-04-19T14:13:43;3.60;;;3.50;;
27802;SDS011;15182;48.174;11.562;2023-04-19T14:16:15;3.50;;;3.40;;
27802;SDS011;15182;48.174;11.562;2023-04-19T14:18:48;3.60;;;3.50;;
27802;SDS011;15182;48.174;11.562;2023-04-19T14:21:20;4.33;;;4.20;;
27802;SDS011;15182;48.174;11.562;2023-04-19T14:23:51;3.37;;;3.27;;
27802;SDS011;15182;48.174;11.562;2023-04-19T14:26:24;4.03;;;3.93;;
27802;SDS011;15182;48.174;11.562;2023-04-19T14:28:55;3.73;;;3.63;;
27802;SDS011;15182;48.174;11.562;2023-04-19T14:31:27;3.43;;;3.27;;
27802;SDS011;15182;48.174;11.562;2023-04-19T14:33:59;3.80;;;3.80;;
27802;SDS011;15182;48.174;11.562;2023-04-19T14:36:30;3.73;;;3.63;;
27802;SDS011;15182;48.174;11.562;2023-04-19T14:39:01;4.80;;;4.60;;
27802;SDS011;15182;48.174;11.562;2023-04-19T14:41:34;5.07;;;4.70;;
27802;SDS011;15182;48.174;11.562;2023-04-19T14:44:06;4.97;;;4.67;;
27802;SDS011;15182;48.174;11.562;2023-04-19T14:46:37;4.43;;;4.23;;
27802;SDS011;15182;48.174;11.562;2023-04-19T14:49:08;4.80;;;4.50;;
27802;SDS011;15182;48.174;11.562;2023-04-19T14:51:39;4.33;;;4.10;;
27802;SDS011;15182;48.174;11.562;2023-04-19T14:54:11;5.47;;;4.77;;
27802;SDS011;15182;48.174;11.562;2023-04-19T14:56:44;4.70;;;4.50;;
27802;SDS011;15182;48.174;11.562;2023-04-19T14:59:15;3.87;;;3.77;;
27802;SDS011;15182;48.174;11.562;2023-04-19T15:01:47;4.87;;;4.50;;